createdAt,value
2019-03-15T00:00:07.444Z,0.1
2019-03-15T00:00:19.268Z,0.1
2019-03-15T00:00:30.945Z,0.1
2019-03-15T00:00:42.708Z,0.1
2019-03-15T00:00:54.456Z,0.1
2019-03-15T00:01:06.211Z,0.1
2019-03-15T00:01:17.983Z,0.2
2019-03-15T00:01:29.755Z,0.2
2019-03-15T00:01:41.650Z,0.2
2019-03-15T00:01:53.256Z,0.2
2019-03-15T00:02:05.020Z,0.2
2019-03-15T00:02:16.768Z,0.4
2019-03-15T00:02:28.533Z,0.4
2019-03-15T00:02:40.322Z,0.2
2019-03-15T00:02:52.087Z,0.2
2019-03-15T00:03:03.859Z,0.2
2019-03-15T00:03:15.669Z,0.1
2019-03-15T00:03:27.428Z,0.1
2019-03-15T00:03:39.179Z,0.3
2019-03-15T00:03:50.918Z,0.3
2019-03-15T00:04:02.695Z,0.2
2019-03-15T00:04:14.451Z,0.1
2019-03-15T00:04:26.208Z,0.1
2019-03-15T00:04:39.941Z,0.1
2019-03-15T00:04:49.725Z,0.6
2019-03-15T00:05:01.496Z,0.6
2019-03-15T00:05:13.265Z,1
2019-03-15T00:05:25.020Z,1
2019-03-15T00:05:36.787Z,1
2019-03-15T00:05:48.535Z,0.2
2019-03-15T00:06:00.298Z,0.2
2019-03-15T00:06:12.040Z,0.2
2019-03-15T00:06:23.812Z,0.2
2019-03-15T00:06:35.563Z,0.2
2019-03-15T00:06:47.342Z,0.3
2019-03-15T00:06:59.101Z,0.2
2019-03-15T00:07:10.881Z,0.2
2019-03-15T00:07:22.644Z,0.2
2019-03-15T00:07:34.398Z,0.1
2019-03-15T00:07:46.150Z,0.1
2019-03-15T00:07:57.896Z,0.2
2019-03-15T00:08:09.748Z,0.2
2019-03-15T00:08:21.509Z,0.2
2019-03-15T00:08:33.278Z,0.2
2019-03-15T00:08:45.041Z,0.2
2019-03-15T00:08:57.324Z,0.4
2019-03-15T00:09:08.613Z,0.4
2019-03-15T00:09:20.373Z,0.2
2019-03-15T00:09:32.134Z,0.2
2019-03-15T00:09:43.926Z,0.1
2019-03-15T00:09:55.682Z,1
2019-03-15T00:10:07.464Z,1
2019-03-15T00:10:19.231Z,1
2019-03-15T00:10:30.991Z,0.1
2019-03-15T00:10:42.760Z,0.1
2019-03-15T00:10:54.552Z,0.1
2019-03-15T00:11:06.337Z,0.1
2019-03-15T00:11:18.095Z,0.2
2019-03-15T00:11:29.858Z,0.2
2019-03-15T00:11:41.630Z,0.2
2019-03-15T00:11:53.395Z,0.2
2019-03-15T00:12:05.182Z,0.2
2019-03-15T00:12:16.937Z,0.1
2019-03-15T00:12:28.705Z,0.1
2019-03-15T00:12:40.485Z,0.1
2019-03-15T00:12:52.243Z,0.1
2019-03-15T00:13:03.991Z,0.1
2019-03-15T00:13:15.771Z,0.2
2019-03-15T00:13:27.548Z,0.2
2019-03-15T00:13:39.349Z,0.2
2019-03-15T00:13:51.090Z,0.1
2019-03-15T00:14:02.877Z,0.1
2019-03-15T00:14:15.626Z,0.1
2019-03-15T00:14:27.405Z,0.1
2019-03-15T00:14:39.185Z,0.2
2019-03-15T00:14:50.927Z,0.2
2019-03-15T00:15:02.668Z,0.3
2019-03-15T00:15:14.453Z,0.3
2019-03-15T00:15:26.194Z,0.7
2019-03-15T00:15:37.958Z,0.6
2019-03-15T00:15:49.697Z,0.5
2019-03-15T00:16:01.467Z,0.1
2019-03-15T00:16:13.257Z,0.1
2019-03-15T00:16:24.998Z,0.1
2019-03-15T00:16:36.761Z,0.1
2019-03-15T00:16:48.510Z,0.1
2019-03-15T00:17:00.257Z,0.1
2019-03-15T00:17:12.019Z,0.1
2019-03-15T00:17:23.792Z,0.2
2019-03-15T00:17:35.575Z,0.2
2019-03-15T00:17:47.315Z,1.3
2019-03-15T00:17:59.104Z,1.3
2019-03-15T00:18:10.857Z,1.3
2019-03-15T00:18:22.604Z,0.1
2019-03-15T00:18:34.361Z,0.1
2019-03-15T00:18:46.938Z,0.2
2019-03-15T00:18:57.913Z,0.2
2019-03-15T00:19:09.675Z,0.2
2019-03-15T00:19:21.433Z,0.1
2019-03-15T00:19:33.258Z,0.3
2019-03-15T00:19:45.043Z,0.3
2019-03-15T00:19:56.822Z,0.2
2019-03-15T00:20:08.616Z,0.2
2019-03-15T00:20:20.347Z,0.2
2019-03-15T00:20:32.242Z,0.1
2019-03-15T00:20:43.994Z,0.1
2019-03-15T00:20:55.758Z,0.2
2019-03-15T00:21:07.541Z,0.5
2019-03-15T00:21:19.297Z,0.4
2019-03-15T00:21:31.047Z,0.1
2019-03-15T00:21:42.815Z,0.1
2019-03-15T00:21:54.598Z,0.1
2019-03-15T00:22:06.358Z,0.3
2019-03-15T00:22:18.156Z,0.5
2019-03-15T00:22:29.967Z,0.5
2019-03-15T00:22:41.704Z,0.4
2019-03-15T00:22:53.464Z,0.2
2019-03-15T00:23:05.249Z,0.5
2019-03-15T00:23:16.998Z,0.4
2019-03-15T00:23:28.750Z,0.1
2019-03-15T00:23:40.508Z,0.1
2019-03-15T00:23:52.296Z,0.2
2019-03-15T00:24:04.038Z,0.1
2019-03-15T00:24:15.792Z,0.1
2019-03-15T00:24:27.559Z,0.1
2019-03-15T00:24:39.326Z,0.1
2019-03-15T00:24:51.081Z,0.3
2019-03-15T00:25:02.847Z,0.3
2019-03-15T00:25:14.589Z,0.2
2019-03-15T00:25:26.439Z,0.2
2019-03-15T00:25:38.214Z,0.2
2019-03-15T00:25:49.954Z,0.1
2019-03-15T00:26:01.693Z,0.3
2019-03-15T00:26:13.445Z,0.3
2019-03-15T00:26:25.242Z,0.9
2019-03-15T00:26:36.987Z,0.9
2019-03-15T00:26:48.786Z,0.9
2019-03-15T00:27:00.548Z,0.2
2019-03-15T00:27:12.314Z,0.5
2019-03-15T00:27:24.077Z,0.4
2019-03-15T00:27:35.831Z,0.4
2019-03-15T00:27:47.603Z,0.1
2019-03-15T00:27:59.418Z,0.2
2019-03-15T00:28:11.168Z,0.2
2019-03-15T00:28:22.925Z,0.2
2019-03-15T00:28:34.686Z,0.2
2019-03-15T00:28:46.429Z,0.1
2019-03-15T00:28:58.189Z,0.2
2019-03-15T00:29:09.939Z,0.2
2019-03-15T00:29:21.691Z,0.9
2019-03-15T00:29:33.431Z,0.9
2019-03-15T00:29:45.222Z,0.3
2019-03-15T00:29:56.980Z,0.3
2019-03-15T00:30:08.855Z,0.3
2019-03-15T00:30:20.516Z,0.1
2019-03-15T00:30:32.326Z,0.3
2019-03-15T00:30:44.116Z,0.3
2019-03-15T00:30:55.868Z,0.4
2019-03-15T00:31:07.655Z,0.3
2019-03-15T00:31:19.418Z,0.2
2019-03-15T00:31:31.217Z,0.2
2019-03-15T00:31:42.981Z,0.2
2019-03-15T00:31:54.745Z,0.2
2019-03-15T00:32:06.534Z,0.1
2019-03-15T00:32:18.287Z,0.1
2019-03-15T00:32:30.490Z,0.8
2019-03-15T00:32:41.813Z,0.8
2019-03-15T00:32:53.598Z,0.8
2019-03-15T00:33:05.335Z,0.1
2019-03-15T00:33:17.116Z,0.1
2019-03-15T00:33:29.868Z,0.1
2019-03-15T00:33:41.620Z,0.1
2019-03-15T00:33:53.387Z,0.2
2019-03-15T00:34:05.156Z,0.2
2019-03-15T00:34:16.912Z,0.2
2019-03-15T00:34:28.675Z,0.2
2019-03-15T00:34:40.610Z,0.3
2019-03-15T00:34:52.257Z,0.3
2019-03-15T00:35:04.035Z,0.2
2019-03-15T00:35:15.789Z,0.2
2019-03-15T00:35:27.584Z,0.2
2019-03-15T00:35:39.366Z,0.1
2019-03-15T00:35:51.133Z,0.1
2019-03-15T00:36:02.913Z,0.4
2019-03-15T00:36:14.683Z,0.4
2019-03-15T00:36:32.760Z,0.4
2019-03-15T00:36:44.520Z,0.2
2019-03-15T00:36:56.314Z,0.2
2019-03-15T00:37:08.084Z,0.2
2019-03-15T00:37:19.850Z,0.3
2019-03-15T00:37:31.605Z,0.2
2019-03-15T00:37:43.371Z,0.2
2019-03-15T00:37:55.144Z,0.7
2019-03-15T00:38:06.891Z,0.7
2019-03-15T00:38:18.693Z,0.7
2019-03-15T00:38:30.421Z,0.1
2019-03-15T00:38:42.182Z,0.1
2019-03-15T00:38:54.111Z,0.2
2019-03-15T00:39:05.695Z,0.3
2019-03-15T00:39:17.457Z,0.3
2019-03-15T00:39:29.236Z,0.3
2019-03-15T00:39:41.034Z,0.2
2019-03-15T00:39:53.820Z,0.2
2019-03-15T00:40:05.622Z,0.2
2019-03-15T00:40:17.403Z,0.2
2019-03-15T00:40:29.133Z,0.2
2019-03-15T00:40:40.912Z,0.2
2019-03-15T00:40:52.680Z,0.1
2019-03-15T00:41:04.434Z,0.1
2019-03-15T00:41:16.185Z,0.1
2019-03-15T00:41:27.965Z,0.1
2019-03-15T00:41:39.729Z,0.1
2019-03-15T00:41:51.525Z,0.1
2019-03-15T00:42:03.286Z,0.1
2019-03-15T00:42:15.173Z,0.1
2019-03-15T00:42:26.978Z,0.2
2019-03-15T00:42:38.732Z,0.3
2019-03-15T00:42:50.513Z,0.3
2019-03-15T00:43:02.263Z,0.4
2019-03-15T00:43:14.016Z,0.4
2019-03-15T00:43:25.900Z,0.3
2019-03-15T00:43:37.541Z,0.1
2019-03-15T00:43:49.850Z,0.1
2019-03-15T00:44:01.108Z,0.2
2019-03-15T00:44:12.889Z,0.1
2019-03-15T00:44:24.667Z,0.1
2019-03-15T00:44:36.454Z,0.1
2019-03-15T00:44:48.240Z,0.1
2019-03-15T00:45:00.019Z,0.2
2019-03-15T00:45:12.757Z,0.2
2019-03-15T00:45:24.514Z,0.2
2019-03-15T00:45:36.294Z,0.2
2019-03-15T00:45:48.060Z,0.2
2019-03-15T00:45:59.818Z,0.2
2019-03-15T00:46:11.587Z,0.2
2019-03-15T00:46:23.363Z,0.2
2019-03-15T00:46:35.120Z,0.1
2019-03-15T00:46:46.877Z,1
2019-03-15T00:46:58.623Z,1
2019-03-15T00:47:10.374Z,0.1
2019-03-15T00:47:22.152Z,0.1
2019-03-15T00:47:33.917Z,0.1
2019-03-15T00:47:45.687Z,0.4
2019-03-15T00:47:57.438Z,0.4
2019-03-15T00:48:09.214Z,0.2
2019-03-15T00:48:20.975Z,0.3
2019-03-15T00:48:32.742Z,0.4
2019-03-15T00:48:44.532Z,0.3
2019-03-15T00:48:56.295Z,0.2
2019-03-15T00:49:08.056Z,0.2
2019-03-15T00:49:19.806Z,0.1
2019-03-15T00:49:31.600Z,0.1
2019-03-15T00:49:43.356Z,0.1
2019-03-15T00:49:55.099Z,0.1
2019-03-15T00:50:06.863Z,0.1
2019-03-15T00:50:18.614Z,0.1
2019-03-15T00:50:30.363Z,0.3
2019-03-15T00:50:42.122Z,0.3
2019-03-15T00:50:53.887Z,0.2
2019-03-15T00:51:05.626Z,0.2
2019-03-15T00:51:17.420Z,0.2
2019-03-15T00:51:29.186Z,0.7
2019-03-15T00:51:40.947Z,0.7
2019-03-15T00:51:52.703Z,0.2
2019-03-15T00:52:04.472Z,0.1
2019-03-15T00:52:16.235Z,0.2
2019-03-15T00:52:28.021Z,0.1
2019-03-15T00:52:39.785Z,0.1
2019-03-15T00:52:51.535Z,0.2
2019-03-15T00:53:03.302Z,0.2
2019-03-15T00:53:15.139Z,0.2
2019-03-15T00:53:26.845Z,0.3
2019-03-15T00:53:38.607Z,0.4
2019-03-15T00:53:50.365Z,0.4
2019-03-15T00:54:02.123Z,0.2
2019-03-15T00:54:13.885Z,0.2
2019-03-15T00:54:25.637Z,0.3
2019-03-15T00:54:37.403Z,0.2
2019-03-15T00:54:49.189Z,0.1
2019-03-15T00:55:00.930Z,0.3
2019-03-15T00:55:12.710Z,0.3
2019-03-15T00:55:24.465Z,0.3
2019-03-15T00:55:36.221Z,0.1
2019-03-15T00:55:47.991Z,0.1
2019-03-15T00:55:59.736Z,0.2
2019-03-15T00:56:11.755Z,0.2
2019-03-15T00:56:23.272Z,0.1
2019-03-15T00:56:35.011Z,0.2
2019-03-15T00:56:46.775Z,1.2
2019-03-15T00:56:58.545Z,1.3
2019-03-15T00:57:10.301Z,0.2
2019-03-15T00:57:22.052Z,0.2
2019-03-15T00:57:33.803Z,0.1
2019-03-15T00:57:45.562Z,0.1
2019-03-15T00:57:57.345Z,0.1
2019-03-15T00:58:09.089Z,0.1
2019-03-15T00:58:20.876Z,0.3
2019-03-15T00:58:32.686Z,0.3
2019-03-15T00:58:44.491Z,0.4
2019-03-15T00:58:56.278Z,0.3
2019-03-15T00:59:08.041Z,0.2
2019-03-15T00:59:20.776Z,0.2
2019-03-15T00:59:32.535Z,0.7
2019-03-15T00:59:44.278Z,0.7
2019-03-15T00:59:56.019Z,0.2
2019-03-15T01:00:07.782Z,0.2
2019-03-15T01:00:19.570Z,0.2
2019-03-15T01:00:31.327Z,0.1
2019-03-15T01:00:43.129Z,0.8
2019-03-15T01:00:54.893Z,0.8
2019-03-15T01:01:06.646Z,0.4
2019-03-15T01:01:18.404Z,0.4
2019-03-15T01:01:30.187Z,0.2
2019-03-15T01:01:41.938Z,0.2
2019-03-15T01:01:53.680Z,0.2
2019-03-15T01:02:05.435Z,0.2
2019-03-15T01:02:17.208Z,0.2
2019-03-15T01:02:28.955Z,0.1
2019-03-15T01:02:43.882Z,0.7
2019-03-15T01:02:52.450Z,0.7
2019-03-15T01:03:04.214Z,0.7
2019-03-15T01:03:15.967Z,0.1
2019-03-15T01:03:27.864Z,0.1
2019-03-15T01:03:39.703Z,0.1
2019-03-15T01:03:51.397Z,0.1
2019-03-15T01:04:03.203Z,0.2
2019-03-15T01:04:14.969Z,0.2
2019-03-15T01:04:26.736Z,0.2
2019-03-15T01:04:38.464Z,0.2
2019-03-15T01:04:50.213Z,0.2
2019-03-15T01:05:01.975Z,0.2
2019-03-15T01:05:13.728Z,0.2
2019-03-15T01:05:25.550Z,0.1
2019-03-15T01:05:37.266Z,0.1
2019-03-15T01:05:49.046Z,0.1
2019-03-15T01:06:00.812Z,0.1
2019-03-15T01:06:12.561Z,0.1
2019-03-15T01:06:24.359Z,0.1
2019-03-15T01:06:36.120Z,0.1
2019-03-15T01:06:47.877Z,0.1
2019-03-15T01:06:59.655Z,0.1
2019-03-15T01:07:11.408Z,0.1
2019-03-15T01:07:23.166Z,0.2
2019-03-15T01:07:34.928Z,1.7
2019-03-15T01:07:46.719Z,1.7
2019-03-15T01:07:58.501Z,0.3
2019-03-15T01:08:10.274Z,0.2
2019-03-15T01:08:22.047Z,0.2
2019-03-15T01:08:33.851Z,0.2
2019-03-15T01:08:45.656Z,0.1
2019-03-15T01:08:57.411Z,0.2
2019-03-15T01:09:09.172Z,0.2
2019-03-15T01:09:20.933Z,0.2
2019-03-15T01:09:32.695Z,0.1
2019-03-15T01:09:44.607Z,0.1
2019-03-15T01:09:56.365Z,0.2
2019-03-15T01:10:08.158Z,0.2
2019-03-15T01:10:19.915Z,0.3
2019-03-15T01:10:31.685Z,0.3
2019-03-15T01:10:43.417Z,0.2
2019-03-15T01:10:55.196Z,0.9
2019-03-15T01:11:06.965Z,3.1
2019-03-15T01:11:18.733Z,3.1
2019-03-15T01:11:30.471Z,2.7
2019-03-15T01:11:45.352Z,0.9
2019-03-15T01:11:53.945Z,0.9
2019-03-15T01:12:05.703Z,0.5
2019-03-15T01:12:17.452Z,0.1
2019-03-15T01:12:29.238Z,0.1
2019-03-15T01:12:40.984Z,0.1
2019-03-15T01:12:52.751Z,0.2
2019-03-15T01:13:04.513Z,0.2
2019-03-15T01:13:16.250Z,0.2
2019-03-15T01:13:28.026Z,0.2
2019-03-15T01:13:39.782Z,0.2
2019-03-15T01:13:51.549Z,0.2
2019-03-15T01:14:03.299Z,0.2
2019-03-15T01:14:15.084Z,0.2
2019-03-15T01:14:26.876Z,0.2
2019-03-15T01:14:38.701Z,0.2
2019-03-15T01:14:50.452Z,0.2
2019-03-15T01:15:02.229Z,0.2
2019-03-15T01:15:13.985Z,0.1
2019-03-15T01:15:25.732Z,0.1
2019-03-15T01:15:37.485Z,0.2
2019-03-15T01:15:49.254Z,0.2
2019-03-15T01:16:00.996Z,0.2
2019-03-15T01:16:12.762Z,0.2
2019-03-15T01:16:24.497Z,0.2
2019-03-15T01:16:36.283Z,0.2
2019-03-15T01:16:48.058Z,0.2
2019-03-15T01:17:00.570Z,0.1
2019-03-15T01:17:11.610Z,0.1
2019-03-15T01:17:23.371Z,0.1
2019-03-15T01:17:35.127Z,0.1
2019-03-15T01:17:46.888Z,0.1
2019-03-15T01:17:58.662Z,0.1
2019-03-15T01:18:10.442Z,0.1
2019-03-15T01:18:22.221Z,0.1
2019-03-15T01:18:34.006Z,0.1
2019-03-15T01:18:45.751Z,0.2
2019-03-15T01:18:57.507Z,0.2
2019-03-15T01:19:09.365Z,0.2
2019-03-15T01:19:21.020Z,0.3
2019-03-15T01:19:32.809Z,0.4
2019-03-15T01:19:44.610Z,0.2
2019-03-15T01:19:56.356Z,0.2
2019-03-15T01:20:08.096Z,0.1
2019-03-15T01:20:19.860Z,0.3
2019-03-15T01:20:31.641Z,0.2
2019-03-15T01:20:43.424Z,0.1
2019-03-15T01:20:55.199Z,0.1
2019-03-15T01:21:06.966Z,0.1
2019-03-15T01:21:19.747Z,0.1
2019-03-15T01:21:31.510Z,0.2
2019-03-15T01:21:43.268Z,0.2
2019-03-15T01:21:55.042Z,0.2
2019-03-15T01:22:06.807Z,0.2
2019-03-15T01:22:18.560Z,0.2
2019-03-15T01:22:30.358Z,0.2
2019-03-15T01:22:42.160Z,0.2
2019-03-15T01:22:53.896Z,0.3
2019-03-15T01:23:05.634Z,1.2
2019-03-15T01:23:17.378Z,1.2
2019-03-15T01:23:29.135Z,0.2
2019-03-15T01:23:40.993Z,0.2
2019-03-15T01:23:52.686Z,0.2
2019-03-15T01:24:04.431Z,0.1
2019-03-15T01:24:16.169Z,0.1
2019-03-15T01:24:27.932Z,0.5
2019-03-15T01:24:39.711Z,0.6
2019-03-15T01:24:51.480Z,0.6
2019-03-15T01:25:03.237Z,0.3
2019-03-15T01:25:15.135Z,0.2
2019-03-15T01:25:26.917Z,0.9
2019-03-15T01:25:38.692Z,0.9
2019-03-15T01:25:50.481Z,0.9
2019-03-15T01:26:02.263Z,0.4
2019-03-15T01:26:14.013Z,0.3
2019-03-15T01:26:25.776Z,0.1
2019-03-15T01:26:37.524Z,0.1
2019-03-15T01:26:49.302Z,0.1
2019-03-15T01:27:01.082Z,0.1
2019-03-15T01:27:12.835Z,0.2
2019-03-15T01:27:24.632Z,0.2
2019-03-15T01:27:36.396Z,0.2
2019-03-15T01:27:48.164Z,0.2
2019-03-15T01:27:59.910Z,0.2
2019-03-15T01:28:11.645Z,0.2
2019-03-15T01:28:23.421Z,0.2
2019-03-15T01:28:35.180Z,0.2
2019-03-15T01:28:46.951Z,0.2
2019-03-15T01:28:59.692Z,0.1
2019-03-15T01:29:11.468Z,0.1
2019-03-15T01:29:23.252Z,0.1
2019-03-15T01:29:35.028Z,0.1
2019-03-15T01:29:46.759Z,0.1
2019-03-15T01:29:58.518Z,0.2
2019-03-15T01:30:10.275Z,0.2
2019-03-15T01:30:22.101Z,0.2
2019-03-15T01:30:33.932Z,0.3
2019-03-15T01:30:45.629Z,0.3
2019-03-15T01:30:57.396Z,0.3
2019-03-15T01:31:09.155Z,0.1
2019-03-15T01:31:20.914Z,0.2
2019-03-15T01:31:32.678Z,0.1
2019-03-15T01:31:44.442Z,2.8
2019-03-15T01:31:56.195Z,2.8
2019-03-15T01:32:07.957Z,0.2
2019-03-15T01:32:19.713Z,0.1
2019-03-15T01:32:31.467Z,0.1
2019-03-15T01:32:43.250Z,0.1
2019-03-15T01:32:55.014Z,0.1
2019-03-15T01:33:06.788Z,0.9
2019-03-15T01:33:18.563Z,0.9
2019-03-15T01:33:30.372Z,0.9
2019-03-15T01:33:42.149Z,0.2
2019-03-15T01:33:53.908Z,0.5
2019-03-15T01:34:05.680Z,0.5
2019-03-15T01:34:17.462Z,0.2
2019-03-15T01:34:29.226Z,0.2
2019-03-15T01:34:40.974Z,0.1
2019-03-15T01:34:52.739Z,0.1
2019-03-15T01:35:04.491Z,0.1
2019-03-15T01:35:16.256Z,0.1
2019-03-15T01:35:28.005Z,0.1
2019-03-15T01:35:39.734Z,0.1
2019-03-15T01:35:51.478Z,1.3
2019-03-15T01:36:03.263Z,1.4
2019-03-15T01:36:15.007Z,1.4
2019-03-15T01:36:26.758Z,0.2
2019-03-15T01:36:38.528Z,0.1
2019-03-15T01:36:50.333Z,0.2
2019-03-15T01:37:02.091Z,0.2
2019-03-15T01:37:13.850Z,0.3
2019-03-15T01:37:25.617Z,0.2
2019-03-15T01:37:37.402Z,0.2
2019-03-15T01:37:49.186Z,0.1
2019-03-15T01:38:00.949Z,0.1
2019-03-15T01:38:12.714Z,0.1
2019-03-15T01:38:24.465Z,0.8
2019-03-15T01:38:36.236Z,0.8
2019-03-15T01:38:47.976Z,0.2
2019-03-15T01:38:59.744Z,0.2
2019-03-15T01:39:11.498Z,0.2
2019-03-15T01:39:24.244Z,0.2
2019-03-15T01:39:36.035Z,0.2
2019-03-15T01:39:47.801Z,0.2
2019-03-15T01:39:59.633Z,0.1
2019-03-15T01:40:11.338Z,0.1
2019-03-15T01:40:23.079Z,0.2
2019-03-15T01:40:34.882Z,0.2
2019-03-15T01:40:48.719Z,0.2
2019-03-15T01:40:58.403Z,0.2
2019-03-15T01:41:10.161Z,0.1
2019-03-15T01:41:21.936Z,0.2
2019-03-15T01:41:33.659Z,0.2
2019-03-15T01:41:45.434Z,0.3
2019-03-15T01:41:57.196Z,0.2
2019-03-15T01:42:08.956Z,0.2
2019-03-15T01:42:20.710Z,0.3
2019-03-15T01:42:32.496Z,0.2
2019-03-15T01:42:44.255Z,0.2
2019-03-15T01:42:56.013Z,0.2
2019-03-15T01:43:07.817Z,0.1
2019-03-15T01:43:19.576Z,0.1
2019-03-15T01:43:31.359Z,0.1
2019-03-15T01:43:43.109Z,0.1
2019-03-15T01:43:54.879Z,0.1
2019-03-15T01:44:06.592Z,0.1
2019-03-15T01:44:18.374Z,0.2
2019-03-15T01:44:30.128Z,0.2
2019-03-15T01:44:41.919Z,0.2
2019-03-15T01:44:53.676Z,0.2
2019-03-15T01:45:05.457Z,0.3
2019-03-15T01:45:17.198Z,0.3
2019-03-15T01:45:28.967Z,0.3
2019-03-15T01:45:40.703Z,0.3
2019-03-15T01:45:52.465Z,0.3
2019-03-15T01:46:04.246Z,0.1
2019-03-15T01:46:16.014Z,0.2
2019-03-15T01:46:27.778Z,0.1
2019-03-15T01:46:39.536Z,0.3
2019-03-15T01:46:51.293Z,0.3
2019-03-15T01:47:03.048Z,0.2
2019-03-15T01:47:14.826Z,0.2
2019-03-15T01:47:26.544Z,0.2
2019-03-15T01:47:38.311Z,0.2
2019-03-15T01:47:50.521Z,0.2
2019-03-15T01:48:01.873Z,0.2
2019-03-15T01:48:13.627Z,0.2
2019-03-15T01:48:25.384Z,0.3
2019-03-15T01:48:37.138Z,0.3
2019-03-15T01:48:48.893Z,0.1
2019-03-15T01:49:00.676Z,0.1
2019-03-15T01:49:12.420Z,0.1
2019-03-15T01:49:24.210Z,0.2
2019-03-15T01:49:35.985Z,0.1
2019-03-15T01:49:48.754Z,0.3
2019-03-15T01:50:00.501Z,0.3
2019-03-15T01:50:12.251Z,0.3
2019-03-15T01:50:24.452Z,0.2
2019-03-15T01:50:35.761Z,0.2
2019-03-15T01:50:47.533Z,0.2
2019-03-15T01:50:59.311Z,0.2
2019-03-15T01:51:11.140Z,0.1
2019-03-15T01:51:22.911Z,0.1
2019-03-15T01:51:34.647Z,0.2
2019-03-15T01:51:46.403Z,0.2
2019-03-15T01:51:58.162Z,0.1
2019-03-15T01:52:09.925Z,0.1
2019-03-15T01:52:21.701Z,0.1
2019-03-15T01:52:33.688Z,0.2
2019-03-15T01:52:45.284Z,0.2
2019-03-15T01:52:57.050Z,0.3
2019-03-15T01:53:08.811Z,0.3
2019-03-15T01:53:20.571Z,0.2
2019-03-15T01:53:32.357Z,0.2
2019-03-15T01:53:44.105Z,0.2
2019-03-15T01:53:55.870Z,0.1
2019-03-15T01:54:07.631Z,0.2
2019-03-15T01:54:19.413Z,0.2
2019-03-15T01:54:31.159Z,0.1
2019-03-15T01:54:42.922Z,0.2
2019-03-15T01:54:54.692Z,0.4
2019-03-15T01:55:06.467Z,0.4
2019-03-15T01:55:18.260Z,0.4
2019-03-15T01:55:30.007Z,0.1
2019-03-15T01:55:41.798Z,0.1
2019-03-15T01:55:53.553Z,0.1
2019-03-15T01:56:05.358Z,0.1
2019-03-15T01:56:17.107Z,0.4
2019-03-15T01:56:28.870Z,0.4
2019-03-15T01:56:40.633Z,0.1
2019-03-15T01:56:52.418Z,0.1
2019-03-15T01:57:04.181Z,0.1
2019-03-15T01:57:15.942Z,0.1
2019-03-15T01:57:27.694Z,0.2
2019-03-15T01:57:39.532Z,1.2
2019-03-15T01:57:51.316Z,1.3
2019-03-15T01:58:03.071Z,0.3
2019-03-15T01:58:14.833Z,0.2
2019-03-15T01:58:26.591Z,0.2
2019-03-15T01:58:38.365Z,0.3
2019-03-15T01:58:50.109Z,0.3
2019-03-15T01:59:01.881Z,0.3
2019-03-15T01:59:13.647Z,0.2
2019-03-15T01:59:25.429Z,0.3
2019-03-15T01:59:37.171Z,0.3
2019-03-15T01:59:48.931Z,0.1
2019-03-15T02:00:00.713Z,0.1
2019-03-15T02:00:13.389Z,0.1
2019-03-15T02:00:24.192Z,0.2
2019-03-15T02:00:35.953Z,0.2
2019-03-15T02:00:47.698Z,0.3
2019-03-15T02:00:59.476Z,0.2
2019-03-15T02:01:11.259Z,0.2
2019-03-15T02:01:23.026Z,0.2
2019-03-15T02:01:35.799Z,0.2
2019-03-15T02:01:47.592Z,0.2
2019-03-15T02:01:59.329Z,0.5
2019-03-15T02:02:11.069Z,0.5
2019-03-15T02:02:22.829Z,0.1
2019-03-15T02:02:34.620Z,0.1
2019-03-15T02:02:46.394Z,0.1
2019-03-15T02:02:58.178Z,0.1
2019-03-15T02:03:09.949Z,0.1
2019-03-15T02:03:21.723Z,0.1
2019-03-15T02:03:33.480Z,0.2
2019-03-15T02:03:45.246Z,0.2
2019-03-15T02:03:57.012Z,0.4
2019-03-15T02:04:08.766Z,0.5
2019-03-15T02:04:20.553Z,0.5
2019-03-15T02:04:32.307Z,0.2
2019-03-15T02:04:44.075Z,0.1
2019-03-15T02:04:55.835Z,0.1
2019-03-15T02:05:07.597Z,0.1
2019-03-15T02:05:19.346Z,0.2
2019-03-15T02:05:31.095Z,0.1
2019-03-15T02:05:42.859Z,0.1
2019-03-15T02:05:54.629Z,0.2
2019-03-15T02:06:06.376Z,0.2
2019-03-15T02:06:18.145Z,0.2
2019-03-15T02:06:29.902Z,0.2
2019-03-15T02:06:41.675Z,0.3
2019-03-15T02:06:53.472Z,0.4
2019-03-15T02:07:05.244Z,0.3
2019-03-15T02:07:17.037Z,0.3
2019-03-15T02:07:28.819Z,0.1
2019-03-15T02:07:40.587Z,0.2
2019-03-15T02:07:52.336Z,0.2
2019-03-15T02:08:04.079Z,0.2
2019-03-15T02:08:15.859Z,0.2
2019-03-15T02:08:27.639Z,0.1
2019-03-15T02:08:39.388Z,0.3
2019-03-15T02:08:51.145Z,0.4
2019-03-15T02:09:02.914Z,0.4
2019-03-15T02:09:14.675Z,0.3
2019-03-15T02:09:26.440Z,0.3
2019-03-15T02:09:38.211Z,0.3
2019-03-15T02:09:50.003Z,0.3
2019-03-15T02:10:01.754Z,0.2
2019-03-15T02:10:13.515Z,0.1
2019-03-15T02:10:26.248Z,0.1
2019-03-15T02:10:38.000Z,0.1
2019-03-15T02:10:49.773Z,0.1
2019-03-15T02:11:01.526Z,0.1
2019-03-15T02:11:13.281Z,0.2
2019-03-15T02:11:25.038Z,0.2
2019-03-15T02:11:36.803Z,0.2
2019-03-15T02:11:48.561Z,0.1
2019-03-15T02:12:00.333Z,0.1
2019-03-15T02:12:12.119Z,0.2
2019-03-15T02:12:23.905Z,0.2
2019-03-15T02:12:35.689Z,0.2
2019-03-15T02:12:47.657Z,0.2
2019-03-15T02:12:59.254Z,0.2
2019-03-15T02:13:11.006Z,0.1
2019-03-15T02:13:22.765Z,0.1
2019-03-15T02:13:34.526Z,0.1
2019-03-15T02:13:46.287Z,0.5
2019-03-15T02:13:58.046Z,0.5
2019-03-15T02:14:09.811Z,0.5
2019-03-15T02:14:21.576Z,0.2
2019-03-15T02:14:33.341Z,0.1
2019-03-15T02:14:45.106Z,0.2
2019-03-15T02:14:56.902Z,0.2
2019-03-15T02:15:08.651Z,0.2
2019-03-15T02:15:20.419Z,0.2
2019-03-15T02:15:32.203Z,0.2
2019-03-15T02:15:43.954Z,0.2
2019-03-15T02:15:55.752Z,0.2
2019-03-15T02:16:07.612Z,0.2
2019-03-15T02:16:19.310Z,0.2
2019-03-15T02:16:31.066Z,0.2
2019-03-15T02:16:42.832Z,0.2
2019-03-15T02:16:54.616Z,0.2
2019-03-15T02:17:06.416Z,0.1
2019-03-15T02:17:18.175Z,0.5
2019-03-15T02:17:29.943Z,0.5
2019-03-15T02:17:41.707Z,0.3
2019-03-15T02:17:53.485Z,0.2
2019-03-15T02:18:05.247Z,0.5
2019-03-15T02:18:17.016Z,0.6
2019-03-15T02:18:28.764Z,0.4
2019-03-15T02:18:40.516Z,0.5
2019-03-15T02:18:52.295Z,0.4
2019-03-15T02:19:04.057Z,0.1
2019-03-15T02:19:15.835Z,0.1
2019-03-15T02:19:27.596Z,0.3
2019-03-15T02:19:39.376Z,0.3
2019-03-15T02:19:51.134Z,0.1
2019-03-15T02:20:02.897Z,0.1
2019-03-15T02:20:14.669Z,0.1
2019-03-15T02:20:27.318Z,0.2
2019-03-15T02:20:38.211Z,0.2
2019-03-15T02:20:49.982Z,0.3
2019-03-15T02:21:01.729Z,0.3
2019-03-15T02:21:13.500Z,0.3
2019-03-15T02:21:25.291Z,0.2
2019-03-15T02:21:37.064Z,0.2
2019-03-15T02:21:48.831Z,0.2
2019-03-15T02:22:00.598Z,0.1
2019-03-15T02:22:12.341Z,0.1
2019-03-15T02:22:24.115Z,0.1
2019-03-15T02:22:35.905Z,0.1
2019-03-15T02:22:47.837Z,0.3
2019-03-15T02:22:59.607Z,0.3
2019-03-15T02:23:11.395Z,0.2
2019-03-15T02:23:23.578Z,0.2
2019-03-15T02:23:34.952Z,0.2
2019-03-15T02:23:46.711Z,0.2
2019-03-15T02:23:58.520Z,0.4
2019-03-15T02:24:11.269Z,0.4
2019-03-15T02:24:23.019Z,0.3
2019-03-15T02:24:34.785Z,0.1
2019-03-15T02:24:46.538Z,0.1
2019-03-15T02:24:58.300Z,0.1
2019-03-15T02:25:10.065Z,0.1
2019-03-15T02:25:21.839Z,0.1
2019-03-15T02:25:33.592Z,0.2
2019-03-15T02:25:45.368Z,0.2
2019-03-15T02:25:57.122Z,0.1
2019-03-15T02:26:08.885Z,0.1
2019-03-15T02:26:20.672Z,0.2
2019-03-15T02:26:32.454Z,0.2
2019-03-15T02:26:44.208Z,0.2
2019-03-15T02:26:56.006Z,0.2
2019-03-15T02:27:07.760Z,0.2
2019-03-15T02:27:19.508Z,0.5
2019-03-15T02:27:31.259Z,0.5
2019-03-15T02:27:43.049Z,0.4
2019-03-15T02:27:54.827Z,0.2
2019-03-15T02:28:06.617Z,0.3
2019-03-15T02:28:18.361Z,0.3
2019-03-15T02:28:30.112Z,3.7
2019-03-15T02:28:41.872Z,3.6
2019-03-15T02:28:53.638Z,3.6
2019-03-15T02:29:05.413Z,0.1
2019-03-15T02:29:18.137Z,0.2
2019-03-15T02:29:29.910Z,0.6
2019-03-15T02:29:41.681Z,0.6
2019-03-15T02:29:53.471Z,0.5
2019-03-15T02:30:05.252Z,0.2
2019-03-15T02:30:17.040Z,0.2
2019-03-15T02:30:28.819Z,0.2
2019-03-15T02:30:40.606Z,0.1
2019-03-15T02:30:52.374Z,0.1
2019-03-15T02:31:04.131Z,0.1
2019-03-15T02:31:15.910Z,0.1
2019-03-15T02:31:27.669Z,0.1
2019-03-15T02:31:39.440Z,0.1
2019-03-15T02:31:52.214Z,0.3
2019-03-15T02:32:03.971Z,0.3
2019-03-15T02:32:15.732Z,0.2
2019-03-15T02:32:27.498Z,0.2
2019-03-15T02:32:39.620Z,0.2
2019-03-15T02:32:51.036Z,0.1
2019-03-15T02:33:02.806Z,0.1
2019-03-15T02:33:14.561Z,0.1
2019-03-15T02:33:26.348Z,0.2
2019-03-15T02:33:39.100Z,0.2
2019-03-15T02:33:50.846Z,0.2
2019-03-15T02:34:02.601Z,0.1
2019-03-15T02:34:14.376Z,0.1
2019-03-15T02:34:27.311Z,0.1
2019-03-15T02:34:37.889Z,0.1
2019-03-15T02:34:49.631Z,0.1
2019-03-15T02:35:01.377Z,0.2
2019-03-15T02:35:13.138Z,0.2
2019-03-15T02:35:24.919Z,0.2
2019-03-15T02:35:36.677Z,0.2
2019-03-15T02:35:48.442Z,0.2
2019-03-15T02:36:00.220Z,0.2
2019-03-15T02:36:13.890Z,0.1
2019-03-15T02:36:24.724Z,0.1
2019-03-15T02:36:36.526Z,0.1
2019-03-15T02:36:48.265Z,0.1
2019-03-15T02:37:00.054Z,0.1
2019-03-15T02:37:11.808Z,0.2
2019-03-15T02:37:23.564Z,0.2
2019-03-15T02:37:35.341Z,0.1
2019-03-15T02:37:47.103Z,0.1
2019-03-15T02:38:00.132Z,0.2
2019-03-15T02:38:10.601Z,1.2
2019-03-15T02:38:22.361Z,1.2
2019-03-15T02:38:34.131Z,0.2
2019-03-15T02:38:45.923Z,0.2
2019-03-15T02:38:58.690Z,0.1
2019-03-15T02:39:10.452Z,0.1
2019-03-15T02:39:22.193Z,0.2
2019-03-15T02:39:33.974Z,0.1
2019-03-15T02:39:46.250Z,0.2
2019-03-15T02:39:57.497Z,0.4
2019-03-15T02:40:09.265Z,0.4
2019-03-15T02:40:21.013Z,0.3
2019-03-15T02:40:32.963Z,0.1
2019-03-15T02:40:44.675Z,0.1
2019-03-15T02:40:56.430Z,0.2
2019-03-15T02:41:08.180Z,0.2
2019-03-15T02:41:19.949Z,0.4
2019-03-15T02:41:32.162Z,0.4
2019-03-15T02:41:43.491Z,0.2
2019-03-15T02:41:55.440Z,0.2
2019-03-15T02:42:07.004Z,0.2
2019-03-15T02:42:18.769Z,0.1
2019-03-15T02:42:31.534Z,0.1